Terminal Aerodrome Forecast
Issued by NWS

Home | Current Version | Previous Version | Text Only | Print | Product List | Glossary On
Versions: 1 2 3 4 5 6 7 8 9 10 11 12 13 14 15 16 17 18 19 20 21 22 23 24 25 26
000
FTUS41 KBOX 241132
TAFHYA
TAF
KHYA 241132Z 2412/2512 16015G25KT 4SM -RA BR OVC035 WS020/18050KT
     FM241300 16018G32KT 2SM RA BR OVC015 WS020/18050KT
     FM241500 17021G38KT P6SM OVC015 WS020/19055KT
     FM250200 21017G29KT P6SM BKN010 WS020/22050KT
     FM250800 23012G23KT P6SM BKN250 WS020/24040KT
     FM250900 23011G22KT P6SM BKN250=

USA.gov is the U.S. government's official web portal to all federal, state and local government web resources and services.